Weather at Dice Helipad

Public forecast

Using degrees Celsius for public forecast. Weather courtesy of forecast.io.

Closest aviation weather report (METAR) to Dice Helipad

Closest report is Tokyo Haneda International Airport, 4.1 nm (7.6 km) ENE.

2024/07/24 22:00 (retrieved 24 minutes ago)

RJTT 242200Z VRB02KT 9999 FEW020 SCT160 BKN/// 29/25 Q1007 NOSIG RMK 1CU020 3AC160 A2976

Closest aviation forecast (TAF) to Dice Helipad

Closest forecast is Tokyo Haneda International Airport, 4.1 nm (7.6 km) ENE.

2024/07/24 18:29 (retrieved 4 hours ago)

TAF RJTT 241709Z 2418/2600 18008KT 9999 FEW020 TEMPO 2503/2509 TS FEW020 FEW025CB BKN030